Time;durP1;ratioP1;P1;durP2;ratioP2;P2;SDS_P1;SDS_P2;PMS_P1;PMS_P2;Temp;Humidity;BMP_temperature;BMP_pressure;BME280_temperature;BME280_humidity;BME280_pressure;Samples;Min_cycle;Max_cycle;Signal;HPM_P1;HPM_P2
2023/11/08 00:03:52;;;;;;;0.85;0.10;;;2.10;99.90;;;;;;25593124;23;20032;-58
2023/11/08 00:13:55;;;;;;;0.52;0.15;;;2.00;99.90;;;;;;25592700;23;20075;-58
2023/11/08 00:23:57;;;;;;;0.40;0.08;;;2.90;99.90;;;;;;25592212;23;20009;-58
2023/11/08 00:33:59;;;;;;;1.65;0.10;;;2.70;99.90;;;;;;25592476;23;20005;-58
2023/11/08 00:44:02;;;;;;;0.75;0.10;;;2.50;99.90;;;;;;25592121;23;20009;-58
2023/11/08 00:54:05;;;;;;;0.10;0.00;;;2.10;99.90;;;;;;25591856;23;20016;-50
2023/11/08 01:04:10;;;;;;;0.57;0.20;;;1.90;99.90;;;;;;25593418;23;20009;-58
2023/11/08 01:14:12;;;;;;;1.27;0.10;;;1.50;99.90;;;;;;25641164;23;20004;-49
2023/11/08 01:24:14;;;;;;;0.10;0.00;;;1.20;99.90;;;;;;25598107;23;20013;-52
2023/11/08 01:34:16;;;;;;;4.07;0.60;;;1.20;99.90;;;;;;25600825;23;20385;-58
2023/11/08 01:44:19;;;;;;;2.25;0.80;;;1.70;99.90;;;;;;25598551;23;20009;-58
2023/11/08 01:54:21;;;;;;;1.08;0.82;;;1.90;99.90;;;;;;25598152;23;20016;-58
2023/11/08 02:04:26;;;;;;;0.50;0.30;;;2.10;99.90;;;;;;25596077;23;20510;-58
2023/11/08 02:14:29;;;;;;;0.30;0.20;;;1.90;99.90;;;;;;25598605;23;20511;-58
2023/11/08 02:24:31;;;;;;;0.40;0.28;;;2.00;99.90;;;;;;25597063;23;20012;-58
2023/11/08 02:34:33;;;;;;;0.47;0.25;;;2.20;99.90;;;;;;25595230;23;20005;-58
2023/11/08 02:44:35;;;;;;;0.30;0.20;;;2.30;99.90;;;;;;25595709;23;20013;-58
2023/11/08 02:54:37;;;;;;;1.42;0.30;;;2.40;99.90;;;;;;25596038;23;20052;-58
2023/11/08 03:04:41;;;;;;;0.45;0.20;;;2.40;99.90;;;;;;25594228;23;20017;-58
2023/11/08 03:14:42;;;;;;;0.13;0.10;;;2.40;99.90;;;;;;25595264;23;20310;-58
2023/11/08 03:24:44;;;;;;;0.57;0.20;;;2.50;99.90;;;;;;25594108;23;20063;-58
2023/11/08 03:34:46;;;;;;;0.90;0.20;;;2.40;99.90;;;;;;25593841;23;20028;-58
2023/11/08 03:44:48;;;;;;;0.90;0.30;;;2.50;99.90;;;;;;25591859;23;20009;-57
2023/11/08 03:54:50;;;;;;;0.10;0.10;;;2.40;99.90;;;;;;25593036;23;20498;-58
2023/11/08 04:04:52;;;;;;;0.65;0.20;;;2.40;99.90;;;;;;25593216;23;20005;-58
2023/11/08 04:14:54;;;;;;;0.10;0.10;;;2.50;99.90;;;;;;25590560;23;20020;-58
2023/11/08 04:24:56;;;;;;;0.17;0.10;;;2.60;99.90;;;;;;25593623;23;20352;-58
2023/11/08 04:34:57;;;;;;;0.20;0.10;;;2.50;99.90;;;;;;25591527;23;20009;-58
2023/11/08 04:44:59;;;;;;;0.30;0.10;;;2.50;99.90;;;;;;25590655;23;20055;-58
2023/11/08 04:55:01;;;;;;;0.30;0.10;;;2.40;99.90;;;;;;25592948;23;20460;-58
2023/11/08 05:05:04;;;;;;;0.70;0.10;;;2.60;99.90;;;;;;25591552;23;20009;-47
2023/11/08 05:15:09;;;;;;;0.35;0.10;;;2.50;99.90;;;;;;25591689;23;20006;-58
2023/11/08 05:25:10;;;;;;;0.10;0.00;;;2.40;99.90;;;;;;25591306;23;20009;-58
2023/11/08 05:35:12;;;;;;;0.10;0.10;;;2.40;99.90;;;;;;25591232;23;20001;-58
2023/11/08 05:45:14;;;;;;;0.43;0.10;;;2.40;99.90;;;;;;25591014;23;20314;-58
2023/11/08 05:55:16;;;;;;;0.00;0.00;;;2.40;99.90;;;;;;25596443;23;20372;-58
2023/11/08 06:05:18;;;;;;;0.57;0.10;;;2.40;99.90;;;;;;25598305;23;20009;-52
2023/11/08 06:15:20;;;;;;;0.17;0.05;;;2.50;99.90;;;;;;25598141;23;20001;-58
2023/11/08 06:25:22;;;;;;;0.30;0.00;;;2.50;99.90;;;;;;25597229;23;20200;-58
2023/11/08 06:35:24;;;;;;;0.05;0.00;;;2.50;99.90;;;;;;25597040;23;20005;-58
2023/11/08 06:45:26;;;;;;;0.00;0.00;;;2.60;99.90;;;;;;25595707;23;20448;-58
2023/11/08 06:55:32;;;;;;;0.55;0.00;;;2.80;99.90;;;;;;25596161;23;20638;-58
2023/11/08 07:05:34;;;;;;;0.10;0.00;;;2.80;99.90;;;;;;25636371;23;20008;-58
2023/11/08 07:15:36;;;;;;;0.10;0.00;;;3.00;99.90;;;;;;25594928;23;20004;-57
2023/11/08 07:25:38;;;;;;;0.00;0.00;;;3.50;99.90;;;;;;25595045;23;20005;-57
2023/11/08 07:35:41;;;;;;;0.00;0.00;;;4.10;99.90;;;;;;25593710;23;20005;-49
2023/11/08 07:45:43;;;;;;;0.00;0.00;;;4.60;99.90;;;;;;25593219;23;20087;-57
2023/11/08 07:55:45;;;;;;;0.15;0.00;;;5.10;99.90;;;;;;25593906;23;20310;-49
2023/11/08 08:05:48;;;;;;;0.00;0.00;;;5.60;97.90;;;;;;25593258;23;20501;-57
2023/11/08 08:15:49;;;;;;;0.00;0.00;;;6.20;96.00;;;;;;25592954;23;20444;-49
2023/11/08 08:25:53;;;;;;;0.05;0.00;;;6.70;94.70;;;;;;25593247;23;20016;-57
2023/11/08 08:35:56;;;;;;;0.28;0.05;;;7.00;94.80;;;;;;25591004;23;20005;-56
2023/11/08 08:45:58;;;;;;;0.20;0.08;;;7.20;93.70;;;;;;25591905;23;20064;-57
2023/11/08 08:56:00;;;;;;;0.10;0.00;;;7.60;91.70;;;;;;25592192;23;20082;-51
2023/11/08 09:06:02;;;;;;;1.30;0.00;;;7.80;92.90;;;;;;25591985;23;20053;-56
2023/11/08 09:16:07;;;;;;;0.52;0.10;;;8.10;93.10;;;;;;25591421;23;20013;-51
2023/11/08 09:26:09;;;;;;;1.70;0.20;;;8.20;92.50;;;;;;25593018;23;20009;-50
2023/11/08 09:36:12;;;;;;;0.98;0.20;;;8.40;91.30;;;;;;25599519;23;20005;-56
2023/11/08 09:46:16;;;;;;;0.52;0.13;;;8.30;93.00;;;;;;25598897;23;20012;-56
2023/11/08 09:56:19;;;;;;;0.10;0.10;;;8.80;90.70;;;;;;25598635;23;20008;-50
2023/11/08 10:06:22;;;;;;;1.75;0.10;;;8.70;90.20;;;;;;25597702;23;20009;-57
2023/11/08 10:16:26;;;;;;;0.20;0.10;;;9.40;92.60;;;;;;25597329;23;20063;-56
2023/11/08 10:26:31;;;;;;;0.28;0.10;;;9.50;90.60;;;;;;25597842;23;20005;-56
2023/11/08 10:36:34;;;;;;;0.22;0.00;;;9.70;90.50;;;;;;25596254;23;20052;-57
2023/11/08 10:46:37;;;;;;;0.20;0.10;;;10.40;87.30;;;;;;25595519;23;20056;-50
2023/11/08 10:56:43;;;;;;;0.20;0.00;;;11.30;92.80;;;;;;25596485;23;20063;-52
2023/11/08 11:06:47;;;;;;;0.10;0.10;;;11.90;90.80;;;;;;25636856;23;20289;-51
2023/11/08 11:17:14;;;;;;;0.25;0.10;;;12.30;93.00;;;;;;25595382;23;20028;-48
2023/11/08 11:27:40;;;;;;;0.17;0.10;;;12.50;90.80;;;;;;25636468;23;20027;-57
2023/11/08 11:37:42;;;;;;;0.03;0.00;;;12.40;92.10;;;;;;25338405;23;20050;-50
2023/11/08 11:47:50;;;;;;;0.10;0.10;;;12.00;90.20;;;;;;25336277;23;20441;-58
2023/11/08 11:57:52;;;;;;;0.10;0.10;;;12.00;92.70;;;;;;25288517;23;20314;-48
2023/11/08 12:07:54;;;;;;;0.10;0.10;;;12.00;93.60;;;;;;25386832;23;20074;-57
2023/11/08 12:17:57;;;;;;;0.20;0.10;;;12.10;93.40;;;;;;25592383;23;20005;-52
2023/11/08 12:28:00;;;;;;;0.20;0.20;;;11.90;91.70;;;;;;25592448;23;20005;-51
2023/11/08 12:38:01;;;;;;;0.22;0.10;;;11.80;95.00;;;;;;25592483;23;20548;-49
2023/11/08 12:48:09;;;;;;;0.40;0.20;;;11.80;94.60;;;;;;25592041;23;20424;-58
2023/11/08 12:58:29;;;;;;;1.10;0.32;;;11.80;94.00;;;;;;25633134;23;20016;-58
2023/11/08 13:08:31;;;;;;;0.60;0.30;;;11.00;94.50;;;;;;25641806;23;20332;-57
2023/11/08 13:18:33;;;;;;;1.80;0.45;;;10.20;96.30;;;;;;25599791;23;20032;-59
2023/11/08 13:28:37;;;;;;;0.98;0.40;;;9.60;97.90;;;;;;25599151;23;20008;-58
2023/11/08 13:38:39;;;;;;;0.90;0.50;;;8.90;97.70;;;;;;25599170;23;20009;-58
2023/11/08 13:48:41;;;;;;;0.88;0.30;;;8.40;99.40;;;;;;25571502;23;20395;-51
2023/11/08 13:58:46;;;;;;;1.10;0.47;;;7.90;98.90;;;;;;25596805;23;20005;-49
2023/11/08 14:08:48;;;;;;;0.50;0.50;;;7.60;98.60;;;;;;25597743;23;20005;-48
2023/11/08 14:18:50;;;;;;;1.10;0.60;;;7.20;99.30;;;;;;25597358;23;20001;-52
2023/11/08 14:28:52;;;;;;;1.05;0.52;;;6.90;99.90;;;;;;25596646;23;20032;-50
2023/11/08 14:38:54;;;;;;;1.52;0.70;;;6.60;99.90;;;;;;25595492;23;20005;-58
2023/11/08 14:48:56;;;;;;;5.47;1.00;;;6.30;99.90;;;;;;25596441;23;20100;-52
2023/11/08 14:59:01;;;;;;;1.55;0.47;;;6.10;99.90;;;;;;25595564;23;20032;-49
2023/11/08 15:09:09;;;;;;;1.30;0.50;;;5.50;99.90;;;;;;25595763;23;20440;-58
2023/11/08 15:19:12;;;;;;;1.40;0.70;;;4.60;99.90;;;;;;25594751;23;20381;-49
2023/11/08 15:29:14;;;;;;;0.50;0.30;;;4.00;99.90;;;;;;25594605;23;20001;-50
2023/11/08 15:39:16;;;;;;;0.90;0.40;;;3.40;99.90;;;;;;25594746;23;20009;-50
2023/11/08 15:49:18;;;;;;;1.45;0.47;;;2.90;99.90;;;;;;25567422;23;20071;-56
2023/11/08 15:59:19;;;;;;;0.63;0.30;;;2.60;99.90;;;;;;25593140;23;20506;-48
2023/11/08 16:09:21;;;;;;;0.50;0.20;;;2.40;99.90;;;;;;25592969;23;20009;-48
2023/11/08 16:19:23;;;;;;;0.40;0.10;;;2.10;99.90;;;;;;25593076;23;20036;-58
2023/11/08 16:29:25;;;;;;;0.45;0.20;;;1.80;99.90;;;;;;25592708;23;20313;-58
2023/11/08 16:39:26;;;;;;;0.40;0.20;;;1.90;99.90;;;;;;25592105;23;20005;-57
2023/11/08 16:49:28;;;;;;;0.57;0.20;;;1.90;99.90;;;;;;25593132;23;20535;-58
2023/11/08 16:59:33;;;;;;;1.13;0.17;;;1.60;99.90;;;;;;25591165;23;20032;-58
2023/11/08 17:09:37;;;;;;;0.20;0.10;;;1.40;99.90;;;;;;25591759;23;20005;-58
2023/11/08 17:19:38;;;;;;;0.40;0.15;;;1.50;99.90;;;;;;25590725;23;20043;-58
2023/11/08 17:29:41;;;;;;;0.40;0.10;;;1.40;99.90;;;;;;25591450;23;20372;-57
2023/11/08 17:39:42;;;;;;;0.40;0.20;;;1.20;99.90;;;;;;25591355;23;20557;-45
2023/11/08 17:49:45;;;;;;;0.10;0.00;;;1.20;99.90;;;;;;25594532;23;20013;-57
2023/11/08 17:59:47;;;;;;;0.10;0.10;;;1.20;99.90;;;;;;25598511;23;20012;-57
2023/11/08 18:09:49;;;;;;;0.10;0.10;;;1.30;99.90;;;;;;25598226;23;20043;-57
2023/11/08 18:19:51;;;;;;;0.90;0.10;;;1.20;99.90;;;;;;25597838;23;20511;-50
2023/11/08 18:29:53;;;;;;;1.90;0.10;;;1.20;99.90;;;;;;25597013;23;20020;-58
2023/11/08 18:39:55;;;;;;;0.20;0.10;;;1.00;99.90;;;;;;25597225;23;20511;-57
2023/11/08 18:49:56;;;;;;;0.20;0.10;;;1.00;99.90;;;;;;25637913;23;20433;-57
2023/11/08 18:59:59;;;;;;;0.45;0.10;;;0.90;99.90;;;;;;25597363;23;20032;-58
2023/11/08 19:10:03;;;;;;;0.35;0.10;;;0.80;99.90;;;;;;25596028;23;20005;-57
2023/11/08 19:20:09;;;;;;;0.22;0.10;;;0.80;99.90;;;;;;25595113;23;20005;-57
2023/11/08 19:30:12;;;;;;;0.30;0.10;;;0.90;99.90;;;;;;25593928;23;20448;-57
2023/11/08 19:40:14;;;;;;;0.20;0.10;;;0.90;99.90;;;;;;25594447;23;20009;-58
2023/11/08 19:50:17;;;;;;;0.10;0.03;;;0.80;99.90;;;;;;25635511;23;20529;-58
2023/11/08 20:00:20;;;;;;;0.10;0.10;;;0.70;99.90;;;;;;25592888;23;20009;-58
2023/11/08 20:10:21;;;;;;;0.45;0.10;;;0.80;99.90;;;;;;25592563;23;20012;-57
2023/11/08 20:20:24;;;;;;;0.20;0.05;;;0.90;99.90;;;;;;25592821;23;20016;-58
2023/11/08 20:30:27;;;;;;;1.45;0.20;;;0.60;99.90;;;;;;25592667;23;20332;-57
2023/11/08 20:40:29;;;;;;;0.35;0.10;;;0.30;99.90;;;;;;25592300;23;20017;-58
2023/11/08 20:50:32;;;;;;;0.30;0.13;;;0.30;99.90;;;;;;25591748;23;20012;-58
2023/11/08 21:00:35;;;;;;;0.55;0.20;;;0.30;99.90;;;;;;25590990;23;20519;-58
2023/11/08 21:10:38;;;;;;;0.20;0.10;;;0.40;99.90;;;;;;25589990;23;20503;-58
2023/11/08 21:20:40;;;;;;;0.73;0.30;;;0.40;99.90;;;;;;25591579;23;20005;-58
2023/11/08 21:30:41;;;;;;;0.60;0.30;;;0.80;99.90;;;;;;25598881;23;20004;-58
2023/11/08 21:40:43;;;;;;;0.93;0.40;;;0.90;99.90;;;;;;25599287;23;20048;-57
2023/11/08 21:50:47;;;;;;;1.30;0.35;;;1.00;99.90;;;;;;25597263;23;20009;-57
2023/11/08 22:00:51;;;;;;;0.45;0.20;;;1.10;99.90;;;;;;25598227;23;20009;-58
2023/11/08 22:10:53;;;;;;;1.90;0.20;;;0.90;99.90;;;;;;25597916;23;20012;-58
2023/11/08 22:20:55;;;;;;;1.08;0.20;;;0.80;99.90;;;;;;25597708;23;20005;-58
2023/11/08 22:30:57;;;;;;;0.77;0.30;;;1.10;99.90;;;;;;25596831;23;20009;-58
2023/11/08 22:40:59;;;;;;;0.30;0.20;;;1.10;99.90;;;;;;25595964;23;20025;-58
2023/11/08 22:51:01;;;;;;;0.60;0.20;;;1.10;99.90;;;;;;25595728;23;20013;-58
2023/11/08 23:01:03;;;;;;;0.30;0.20;;;0.90;99.90;;;;;;25596440;23;20005;-58
2023/11/08 23:11:04;;;;;;;1.17;0.20;;;0.70;99.90;;;;;;25595273;23;20016;-47
2023/11/08 23:21:06;;;;;;;1.52;0.30;;;0.80;99.90;;;;;;25595483;23;20001;-58
2023/11/08 23:31:08;;;;;;;0.45;0.28;;;0.60;99.90;;;;;;25594660;23;20013;-58
2023/11/08 23:41:10;;;;;;;1.27;0.25;;;0.50;99.90;;;;;;25594130;23;20072;-58
2023/11/08 23:51:12;;;;;;;1.10;0.40;;;0.50;99.90;;;;;;25593756;23;20001;-58
